Hawarden, Canada
Current Conditions -  °F | °C
As of 2:00 PM on Friday 24 Oct 2014 (Local Time) from CYXE Reporting Station
Few Clouds Few Clouds  
Wind Chill: 54°   Ceiling: Unl
Heat Index: 54°   Visibility: 15mi
Dew Point: 30°   Wind: 22mph
Humidity: 41%   Direction: 300°WNW
Pressure: 29.79"   Gusts: 32mph
Location:  51.42°N, 106.6°W
Report Text: CYXE 242000Z 30019G28KT 15SM FEW050 FEW230 12/M01 A2979 RMK CU1CI1 SLP103 DENSITY ALT 1800FT
Loading
Personal Weather Stations






























Interactive Weather Map
Tropical Storm Tracking
New forecast layout! Learn more

10-Day Weather Forecast

Advertisements
Track Severe Weather on mobile